createdAt,value
2022-09-05T00:00:02.849Z,98746.88
2022-09-05T00:02:48.293Z,98749.53
2022-09-05T00:05:55.489Z,98744.75
2022-09-05T00:08:42.720Z,98747.47
2022-09-05T00:11:41.707Z,98748.06
2022-09-05T00:15:17.087Z,98742.31
2022-09-05T00:18:45.491Z,98738.78
2022-09-05T00:24:27.971Z,98738.78
2022-09-05T00:24:37.160Z,98749.00
2022-09-05T00:26:51.991Z,98752.84
2022-09-05T00:30:00.050Z,98747.25
2022-09-05T00:32:31.307Z,98738.09
2022-09-05T00:35:13.059Z,98732.91
2022-09-05T00:37:49.058Z,98734.13
2022-09-05T00:40:28.586Z,98734.84
2022-09-05T00:43:02.235Z,98736.50
2022-09-05T00:45:38.123Z,98744.44
2022-09-05T00:48:23.999Z,98742.41
2022-09-05T00:51:21.128Z,98756.91
2022-09-05T00:54:40.459Z,98749.19
2022-09-05T00:57:45.452Z,98737.88
2022-09-05T01:00:18.720Z,98729.78
2022-09-05T01:03:09.908Z,98741.41
2022-09-05T01:06:03.060Z,98747.34
2022-09-05T01:09:08.153Z,98755.34
2022-09-05T01:11:52.948Z,98750.94
2022-09-05T01:14:47.631Z,98752.56
2022-09-05T01:17:38.288Z,98760.06
2022-09-05T01:20:31.412Z,98754.97
2022-09-05T01:23:35.560Z,98751.88
2022-09-05T01:26:18.940Z,98757.97
2022-09-05T01:29:16.063Z,98751.38
2022-09-05T01:32:01.561Z,98741.91
2022-09-05T01:34:41.804Z,98745.66
2022-09-05T01:37:33.785Z,98743.72
2022-09-05T01:40:17.308Z,98735.38
2022-09-05T01:43:03.977Z,98732.19
2022-09-05T01:45:50.678Z,98719.47
2022-09-05T01:48:33.055Z,98731.00
2022-09-05T01:51:29.001Z,98739.16
2022-09-05T01:54:23.724Z,98731.25
2022-09-05T01:57:09.268Z,98721.81
2022-09-05T01:59:48.817Z,98708.34
2022-09-05T02:02:39.680Z,98722.53
2022-09-05T02:05:29.050Z,98724.88
2022-09-05T02:08:24.608Z,98723.50
2022-09-05T02:11:06.517Z,98714.81
2022-09-05T02:14:01.673Z,98724.19
2022-09-05T02:16:45.052Z,98728.91
2022-09-05T02:19:25.321Z,98721.81
2022-09-05T02:22:04.646Z,98728.94
2022-09-05T02:24:39.794Z,98728.06
2022-09-05T02:27:38.881Z,98725.88
2022-09-05T02:30:21.171Z,98723.63
2022-09-05T02:33:00.063Z,98721.22
2022-09-05T02:35:42.223Z,98707.38
2022-09-05T02:38:47.145Z,98710.88
2022-09-05T02:45:08.055Z,98702.78
2022-09-05T02:45:14.211Z,98705.56
2022-09-05T02:47:07.172Z,98702.38
2022-09-05T02:52:03.873Z,98704.31
2022-09-05T02:57:25.701Z,98699.72
2022-09-05T02:57:35.240Z,98704.75
2022-09-05T02:59:09.104Z,98706.34
2022-09-05T03:01:57.728Z,98707.06
2022-09-05T03:04:34.916Z,98704.00
2022-09-05T03:07:22.767Z,98716.28
2022-09-05T03:10:47.130Z,98718.19
2022-09-05T03:14:01.788Z,98715.09
2022-09-05T03:17:01.420Z,98713.59
2022-09-05T03:20:04.658Z,98718.34
2022-09-05T03:23:06.687Z,98715.19
2022-09-05T03:26:27.177Z,98714.78
2022-09-05T03:29:32.745Z,98718.75
2022-09-05T03:32:40.341Z,98714.00
2022-09-05T03:35:47.869Z,98706.16
2022-09-05T03:38:51.258Z,98705.75
2022-09-05T03:41:44.968Z,98712.91
2022-09-05T03:44:35.278Z,98710.88
2022-09-05T03:47:35.978Z,98708.09
2022-09-05T03:56:56.916Z,98707.69
2022-09-05T03:57:18.763Z,98717.53
2022-09-05T03:57:38.599Z,98723.47
2022-09-05T04:00:23.656Z,98726.31
2022-09-05T04:08:06.829Z,98720.00
2022-09-05T04:08:20.390Z,98726.28
2022-09-05T04:09:10.732Z,98720.38
2022-09-05T04:11:44.638Z,98730.22
2022-09-05T04:14:24.128Z,98718.38
2022-09-05T04:17:00.568Z,98721.19
2022-09-05T04:19:37.272Z,98723.94
2022-09-05T04:22:24.281Z,98725.47
2022-09-05T04:25:04.472Z,98720.41
2022-09-05T04:27:43.727Z,98722.38
2022-09-05T04:30:38.901Z,98717.97
2022-09-05T04:33:36.675Z,98721.53
2022-09-05T04:36:21.505Z,98723.13
2022-09-05T04:39:10.829Z,98721.56
2022-09-05T04:41:46.236Z,98723.50
2022-09-05T04:44:20.354Z,98729.41
2022-09-05T04:46:53.868Z,98722.72
2022-09-05T04:49:30.797Z,98712.16
2022-09-05T04:52:31.634Z,98722.75
2022-09-05T04:55:09.174Z,98730.56
2022-09-05T04:57:45.208Z,98734.13
2022-09-05T05:06:00.244Z,98736.88
2022-09-05T05:06:16.109Z,98738.50
2022-09-05T05:06:43.823Z,98746.34
2022-09-05T05:09:09.321Z,98748.31
2022-09-05T05:18:01.692Z,98748.75
2022-09-05T05:18:06.384Z,98750.69
2022-09-05T05:18:15.781Z,98751.88
2022-09-05T05:20:42.969Z,98753.84
2022-09-05T05:23:18.733Z,98745.16
2022-09-05T05:25:54.316Z,98761.69
2022-09-05T05:28:32.217Z,98758.56
2022-09-05T05:31:14.186Z,98756.97
2022-09-05T05:33:47.850Z,98762.50
2022-09-05T05:36:23.608Z,98764.09
2022-09-05T05:39:04.027Z,98766.41
2022-09-05T05:41:43.034Z,98770.34
2022-09-05T05:44:16.225Z,98767.59
2022-09-05T05:46:49.843Z,98764.81
2022-09-05T05:49:37.221Z,98774.28
2022-09-05T05:52:29.784Z,98764.03
2022-09-05T05:55:51.557Z,98771.91
2022-09-05T05:58:17.988Z,98787.28
2022-09-05T06:01:37.320Z,98785.72
2022-09-05T06:04:28.149Z,98775.06
2022-09-05T06:07:09.815Z,98775.84
2022-09-05T06:12:40.114Z,98773.50
2022-09-05T06:14:57.994Z,98776.63
2022-09-05T06:17:07.242Z,98774.25
2022-09-05T06:22:04.398Z,98775.75
2022-09-05T06:23:34.801Z,98781.31
2022-09-05T06:26:32.464Z,98784.84
2022-09-05T06:29:12.803Z,98794.66
2022-09-05T06:32:09.462Z,98786.03
2022-09-05T06:35:19.696Z,98792.28
2022-09-05T06:37:59.554Z,98789.16
2022-09-05T06:40:34.550Z,98796.19
2022-09-05T06:43:31.407Z,98799.47
2022-09-05T06:46:55.187Z,98791.81
2022-09-05T06:49:30.918Z,98799.16
2022-09-05T06:52:39.040Z,98792.63
2022-09-05T06:55:33.607Z,98799.66
2022-09-05T06:58:57.394Z,98794.72
2022-09-05T07:01:55.204Z,98797.44
2022-09-05T07:05:36.926Z,98796.66
2022-09-05T07:07:30.926Z,98795.16
2022-09-05T07:10:22.197Z,98792.19
2022-09-05T07:13:00.309Z,98799.78
2022-09-05T07:15:43.952Z,98800.84
2022-09-05T07:18:22.266Z,98798.50
2022-09-05T07:21:16.001Z,98803.13
2022-09-05T07:24:08.848Z,98796.75
2022-09-05T07:26:52.491Z,98802.22
2022-09-05T07:29:30.936Z,98797.22
2022-09-05T07:32:06.563Z,98797.84
2022-09-05T07:34:38.048Z,98797.69
2022-09-05T07:37:15.585Z,98801.78
2022-09-05T07:39:51.278Z,98799.31
2022-09-05T07:42:27.243Z,98799.81
2022-09-05T07:44:59.718Z,98795.53
2022-09-05T07:47:34.305Z,98794.13
2022-09-05T07:51:59.166Z,98786.16
2022-09-05T07:56:54.204Z,98782.03
2022-09-05T07:56:59.937Z,98786.78
2022-09-05T07:58:52.228Z,98788.75
2022-09-05T08:01:24.141Z,98791.63
2022-09-05T08:04:05.615Z,98791.19
2022-09-05T08:07:34.750Z,98782.69
2022-09-05T08:10:06.836Z,98787.97
2022-09-05T08:12:28.027Z,98792.16
2022-09-05T08:15:14.179Z,98784.78
2022-09-05T08:17:58.711Z,98791.47
2022-09-05T08:20:37.008Z,98787.56
2022-09-05T08:23:13.808Z,98782.81
2022-09-05T08:25:57.276Z,98776.50
2022-09-05T08:28:39.212Z,98780.16
2022-09-05T08:31:14.479Z,98777.72
2022-09-05T08:33:46.414Z,98783.69
2022-09-05T08:36:28.997Z,98784.63
2022-09-05T08:39:02.297Z,98773.44
2022-09-05T08:41:49.284Z,98776.28
2022-09-05T08:46:42.970Z,98768.25
2022-09-05T08:47:26.368Z,98778.00
2022-09-05T08:50:26.952Z,98777.31
2022-09-05T08:53:45.707Z,98779.28
2022-09-05T08:56:12.286Z,98779.38
2022-09-05T08:59:31.498Z,98764.22
2022-09-05T09:02:45.373Z,98766.06
2022-09-05T09:05:22.687Z,98767.16
2022-09-05T09:08:01.219Z,98768.06
2022-09-05T09:10:46.770Z,98765.13
2022-09-05T09:13:30.514Z,98757.16
2022-09-05T09:16:08.185Z,98759.69
2022-09-05T09:19:00.811Z,98769.00
2022-09-05T09:21:41.496Z,98760.59
2022-09-05T09:24:25.234Z,98765.25
2022-09-05T09:27:03.241Z,98755.13
2022-09-05T09:29:39.340Z,98752.78
2022-09-05T09:32:13.466Z,98749.81
2022-09-05T09:34:55.564Z,98757.31
2022-09-05T09:37:59.779Z,98750.13
2022-09-05T09:41:11.235Z,98752.44
2022-09-05T09:44:09.375Z,98745.69
2022-09-05T09:46:45.580Z,98742.72
2022-09-05T09:49:36.175Z,98740.25
2022-09-05T09:52:53.055Z,98742.00
2022-09-05T09:55:52.203Z,98733.66
2022-09-05T09:58:41.212Z,98730.03
2022-09-05T10:01:36.569Z,98728.72
2022-09-05T10:09:53.866Z,98724.31
2022-09-05T10:10:53.747Z,98722.81
2022-09-05T10:11:52.152Z,98715.00
2022-09-05T10:14:49.931Z,98717.09
2022-09-05T10:17:44.495Z,98726.78
2022-09-05T10:20:29.730Z,98719.44
2022-09-05T10:23:18.583Z,98722.69
2022-09-05T10:26:18.847Z,98720.53
2022-09-05T10:29:30.222Z,98718.34
2022-09-05T10:35:09.625Z,98721.81
2022-09-05T10:35:12.998Z,98714.94
2022-09-05T10:37:51.701Z,98716.84
2022-09-05T10:40:24.479Z,98711.69
2022-09-05T10:43:00.205Z,98703.53
2022-09-05T10:45:38.562Z,98696.47
2022-09-05T10:48:18.224Z,98689.09
2022-09-05T10:51:01.366Z,98689.00
2022-09-05T10:53:44.751Z,98675.63
2022-09-05T10:56:18.714Z,98676.66
2022-09-05T11:01:17.792Z,98670.31
2022-09-05T11:02:27.904Z,98675.88
2022-09-05T11:04:55.740Z,98669.38
2022-09-05T11:07:41.912Z,98660.50
2022-09-05T11:10:17.760Z,98667.97
2022-09-05T11:13:14.462Z,98664.50
2022-09-05T11:16:04.954Z,98660.69
2022-09-05T11:18:56.940Z,98671.28
2022-09-05T11:21:43.264Z,98662.13
2022-09-05T11:24:30.867Z,98662.91
2022-09-05T11:27:25.305Z,98654.16
2022-09-05T11:29:58.432Z,98652.84
2022-09-05T11:39:45.900Z,98650.69
2022-09-05T11:39:51.543Z,98655.09
2022-09-05T11:40:02.702Z,98655.78
2022-09-05T11:42:16.447Z,98649.66
2022-09-05T11:45:02.153Z,98652.84
2022-09-05T11:48:04.631Z,98646.66
2022-09-05T11:50:59.405Z,98647.50
2022-09-05T11:53:58.302Z,98646.47
2022-09-05T11:57:15.674Z,98655.34
2022-09-05T12:00:34.004Z,98647.09
2022-09-05T12:03:57.250Z,98645.47
2022-09-05T12:07:26.874Z,98643.25
2022-09-05T12:10:45.779Z,98639.16
2022-09-05T12:13:32.318Z,98634.34
2022-09-05T12:16:26.572Z,98633.09
2022-09-05T12:19:19.505Z,98624.00
2022-09-05T12:22:08.780Z,98621.59
2022-09-05T12:25:23.598Z,98609.97
2022-09-05T12:27:46.133Z,98617.16
2022-09-05T12:30:26.316Z,98612.38
2022-09-05T12:36:05.731Z,98608.84
2022-09-05T12:40:53.413Z,98609.63
2022-09-05T12:41:34.467Z,98606.97
2022-09-05T12:42:40.587Z,98606.56
2022-09-05T12:45:32.959Z,98600.53
2022-09-05T12:48:14.484Z,98609.63
2022-09-05T12:50:57.163Z,98602.66
2022-09-05T12:53:34.428Z,98597.16
2022-09-05T12:56:45.946Z,98603.47
2022-09-05T13:02:59.073Z,98594.53
2022-09-05T13:03:03.635Z,98589.19
2022-09-05T13:04:59.705Z,98588.47
2022-09-05T13:07:42.967Z,98579.66
2022-09-05T13:14:31.350Z,98587.09
2022-09-05T13:14:54.907Z,98583.28
2022-09-05T13:16:13.438Z,98575.22
2022-09-05T13:18:57.236Z,98574.88
2022-09-05T13:21:29.988Z,98580.59
2022-09-05T13:24:12.445Z,98569.75
2022-09-05T13:26:48.040Z,98566.66
2022-09-05T13:29:21.274Z,98565.53
2022-09-05T13:37:55.248Z,98557.66
2022-09-05T13:38:20.159Z,98560.38
2022-09-05T13:38:37.785Z,98550.03
2022-09-05T13:41:01.334Z,98550.03
2022-09-05T13:43:38.500Z,98539.75
2022-09-05T13:46:17.305Z,98545.06
2022-09-05T13:51:46.877Z,98540.09
2022-09-05T13:54:39.443Z,98539.19
2022-09-05T13:57:31.856Z,98537.38
2022-09-05T14:00:31.986Z,98538.09
2022-09-05T14:03:39.307Z,98527.56
2022-09-05T14:06:46.174Z,98524.53
2022-09-05T14:09:37.232Z,98523.38
2022-09-05T14:12:15.330Z,98522.94
2022-09-05T14:15:10.399Z,98520.50
2022-09-05T14:17:58.667Z,98520.44
2022-09-05T14:20:44.123Z,98512.81
2022-09-05T14:23:21.946Z,98506.66
2022-09-05T14:25:56.641Z,98517.44
2022-09-05T14:28:33.008Z,98521.97
2022-09-05T14:35:00.732Z,98520.31
2022-09-05T14:37:46.747Z,98515.28
2022-09-05T14:37:53.459Z,98511.25
2022-09-05T14:41:05.913Z,98509.16
2022-09-05T14:44:06.030Z,98511.00
2022-09-05T14:46:56.719Z,98500.94
2022-09-05T14:50:04.219Z,98501.94
2022-09-05T14:52:43.419Z,98499.94
2022-09-05T14:55:20.570Z,98504.63
2022-09-05T15:02:41.910Z,98506.38
2022-09-05T15:02:49.860Z,98496.19
2022-09-05T15:06:42.741Z,98493.22
2022-09-05T15:12:15.232Z,98496.44
2022-09-05T15:12:31.333Z,98483.41
2022-09-05T15:15:18.259Z,98481.78
2022-09-05T15:17:51.638Z,98481.22
2022-09-05T15:20:40.257Z,98469.00
2022-09-05T15:23:16.725Z,98472.25
2022-09-05T15:25:49.575Z,98472.47
2022-09-05T15:28:24.121Z,98468.00
2022-09-05T15:31:02.666Z,98469.91
2022-09-05T15:33:33.568Z,98465.03
2022-09-05T15:36:07.815Z,98470.84
2022-09-05T15:38:54.395Z,98473.41
2022-09-05T15:41:26.758Z,98463.47
2022-09-05T15:44:01.375Z,98464.25
2022-09-05T15:46:49.452Z,98462.53
2022-09-05T15:49:38.013Z,98463.28
2022-09-05T15:52:30.132Z,98464.06
2022-09-05T15:55:06.229Z,98456.25
2022-09-05T15:57:40.469Z,98453.66
2022-09-05T16:00:12.470Z,98450.53
2022-09-05T16:02:50.036Z,98447.28
2022-09-05T16:10:31.699Z,98449.03
2022-09-05T16:10:46.155Z,98451.28
2022-09-05T16:12:06.281Z,98445.00
2022-09-05T16:14:26.026Z,98445.38
2022-09-05T16:23:14.934Z,98448.69
2022-09-05T16:23:32.025Z,98439.19
2022-09-05T16:23:35.079Z,98443.66
2022-09-05T16:25:45.283Z,98441.31
2022-09-05T16:28:19.428Z,98442.28
2022-09-05T16:30:50.938Z,98438.28
2022-09-05T16:33:30.709Z,98441.66
2022-09-05T16:36:04.238Z,98446.66
2022-09-05T16:38:49.947Z,98439.41
2022-09-05T16:41:29.962Z,98430.41
2022-09-05T16:44:07.421Z,98427.28
2022-09-05T16:46:42.267Z,98427.28
2022-09-05T16:49:18.663Z,98421.22
2022-09-05T16:52:17.014Z,98421.47
2022-09-05T16:54:53.405Z,98419.72
2022-09-05T16:57:30.023Z,98417.66
2022-09-05T17:00:00.627Z,98422.53
2022-09-05T17:02:32.120Z,98417.94
2022-09-05T17:05:12.907Z,98419.69
2022-09-05T17:08:10.683Z,98425.94
2022-09-05T17:10:57.785Z,98420.88
2022-09-05T17:13:53.383Z,98413.06
2022-09-05T17:16:31.390Z,98407.66
2022-09-05T17:19:04.016Z,98407.22
2022-09-05T17:24:56.755Z,98413.63
2022-09-05T17:29:18.930Z,98413.06
2022-09-05T17:29:45.582Z,98410.28
2022-09-05T17:31:48.868Z,98412.94
2022-09-05T17:33:19.542Z,98403.63
2022-09-05T17:36:06.762Z,98415.44
2022-09-05T17:38:52.936Z,98414.03
2022-09-05T17:41:45.627Z,98423.47
2022-09-05T17:44:24.837Z,98421.75
2022-09-05T17:47:20.579Z,98417.75
2022-09-05T17:50:14.812Z,98423.19
2022-09-05T17:53:25.706Z,98430.03
2022-09-05T17:56:15.222Z,98423.66
2022-09-05T17:59:04.340Z,98429.56
2022-09-05T18:01:35.035Z,98433.31
2022-09-05T18:04:16.917Z,98436.41
2022-09-05T18:07:00.179Z,98430.50
2022-09-05T18:13:12.495Z,98439.47
2022-09-05T18:16:12.451Z,98439.09
2022-09-05T18:19:28.466Z,98448.09
2022-09-05T18:21:54.305Z,98446.81
2022-09-05T18:24:35.104Z,98442.47
2022-09-05T18:27:36.519Z,98448.16
2022-09-05T18:30:13.923Z,98448.03
2022-09-05T18:32:53.372Z,98441.50
2022-09-05T18:35:37.739Z,98456.81
2022-09-05T18:38:51.378Z,98452.16
2022-09-05T18:41:25.469Z,98463.19
2022-09-05T18:44:12.360Z,98466.03
2022-09-05T18:46:47.809Z,98458.16
2022-09-05T18:50:23.898Z,98461.75
2022-09-05T18:52:23.748Z,98472.28
2022-09-05T18:56:10.574Z,98463.06
2022-09-05T18:57:57.822Z,98466.09
2022-09-05T19:00:44.552Z,98463.66
2022-09-05T19:03:24.977Z,98465.69
2022-09-05T19:06:36.144Z,98476.94
2022-09-05T19:08:56.191Z,98475.84
2022-09-05T19:11:33.649Z,98471.38
2022-09-05T19:14:26.175Z,98475.47
2022-09-05T19:17:07.692Z,98471.66
2022-09-05T19:20:31.444Z,98464.13
2022-09-05T19:23:11.272Z,98467.63
2022-09-05T19:25:45.273Z,98473.19
2022-09-05T19:36:49.226Z,98470.41
2022-09-05T19:36:57.701Z,98463.16
2022-09-05T19:37:23.871Z,98469.59
2022-09-05T19:37:29.553Z,98464.16
2022-09-05T19:44:11.115Z,98467.38
2022-09-05T19:47:27.577Z,98470.50
2022-09-05T19:47:48.753Z,98464.50
2022-09-05T19:48:35.187Z,98464.28
2022-09-05T19:51:16.171Z,98459.28
2022-09-05T19:54:04.947Z,98456.59
2022-09-05T19:56:39.057Z,98450.91
2022-09-05T19:59:19.625Z,98447.22
2022-09-05T20:01:53.346Z,98445.97
2022-09-05T20:04:26.578Z,98439.47
2022-09-05T20:06:56.468Z,98440.50
2022-09-05T20:09:27.754Z,98445.16
2022-09-05T20:11:59.995Z,98445.06
2022-09-05T20:14:31.727Z,98440.03
2022-09-05T20:17:22.331Z,98436.22
2022-09-05T20:20:05.544Z,98435.13
2022-09-05T20:22:49.358Z,98428.88
2022-09-05T20:25:35.149Z,98433.44
2022-09-05T20:28:10.222Z,98435.88
2022-09-05T20:30:44.451Z,98438.00
2022-09-05T20:33:22.486Z,98433.31
2022-09-05T20:43:10.102Z,98435.78
2022-09-05T20:43:17.746Z,98425.19
2022-09-05T20:43:26.811Z,98429.78
2022-09-05T20:44:41.618Z,98429.44
2022-09-05T20:54:12.528Z,98429.00
2022-09-05T20:54:20.538Z,98441.03
2022-09-05T20:54:28.947Z,98427.44
2022-09-05T20:56:06.560Z,98443.47
2022-09-05T20:58:38.247Z,98437.56
2022-09-05T21:01:21.717Z,98438.72
2022-09-05T21:03:58.148Z,98447.16
2022-09-05T21:06:33.724Z,98450.06
2022-09-05T21:09:24.609Z,98455.63
2022-09-05T21:11:58.830Z,98448.06
2022-09-05T21:14:31.927Z,98449.06
2022-09-05T21:17:13.352Z,98445.53
2022-09-05T21:19:53.233Z,98437.38
2022-09-05T21:22:39.414Z,98451.72
2022-09-05T21:25:43.844Z,98438.50
2022-09-05T21:28:32.616Z,98446.72
2022-09-05T21:31:15.796Z,98448.69
2022-09-05T21:33:47.237Z,98447.69
2022-09-05T21:36:19.440Z,98450.81
2022-09-05T21:38:51.850Z,98452.56
2022-09-05T21:41:21.587Z,98446.22
2022-09-05T21:47:35.654Z,98448.75
2022-09-05T21:47:48.802Z,98445.53
2022-09-05T21:49:35.287Z,98445.63
2022-09-05T21:52:07.357Z,98438.75
2022-09-05T21:59:19.801Z,98438.06
2022-09-05T21:59:26.137Z,98446.59
2022-09-05T22:00:26.419Z,98450.25
2022-09-05T22:02:56.385Z,98448.72
2022-09-05T22:05:26.362Z,98440.91
2022-09-05T22:07:56.398Z,98437.13
2022-09-05T22:10:40.009Z,98442.81
2022-09-05T22:13:20.378Z,98438.13
2022-09-05T22:15:50.087Z,98436.31
2022-09-05T22:18:19.856Z,98435.75
2022-09-05T22:21:33.278Z,98415.88
2022-09-05T22:23:47.134Z,98409.28
2022-09-05T22:26:21.485Z,98417.63
2022-09-05T22:28:51.653Z,98414.63
2022-09-05T22:31:22.261Z,98422.13
2022-09-05T22:33:52.120Z,98427.81
2022-09-05T22:36:21.897Z,98421.06
2022-09-05T22:38:51.624Z,98419.59
2022-09-05T22:41:28.113Z,98422.78
2022-09-05T22:44:01.185Z,98420.25
2022-09-05T22:46:31.211Z,98415.88
2022-09-05T22:49:00.969Z,98413.84
2022-09-05T22:51:30.699Z,98411.78
2022-09-05T22:54:00.398Z,98427.66
2022-09-05T22:56:37.587Z,98428.28
2022-09-05T23:01:44.524Z,98427.31
2022-09-05T23:04:14.348Z,98425.06
2022-09-05T23:06:44.210Z,98419.69
2022-09-05T23:09:13.957Z,98430.97
2022-09-05T23:11:46.310Z,98427.50
2022-09-05T23:14:16.009Z,98427.06
2022-09-05T23:16:45.876Z,98422.47
2022-09-05T23:19:15.551Z,98418.91
2022-09-05T23:21:45.266Z,98425.09
2022-09-05T23:24:14.963Z,98424.41
2022-09-05T23:26:47.293Z,98426.16
2022-09-05T23:29:17.101Z,98416.63
2022-09-05T23:31:46.762Z,98419.41
2022-09-05T23:34:16.462Z,98424.50
2022-09-05T23:36:46.218Z,98419.13
2022-09-05T23:39:15.904Z,98416.78
2022-09-05T23:41:48.176Z,98412.78
2022-09-05T23:44:17.853Z,98412.63
2022-09-05T23:46:47.563Z,98407.09
2022-09-05T23:49:17.318Z,98408.28
2022-09-05T23:51:47.322Z,98410.28
2022-09-05T23:54:17.052Z,98406.13
2022-09-05T23:56:49.432Z,98407.38
2022-09-05T23:59:19.165Z,98406.19
